This is the latest recevied weather packets stored in our database for station/object DG2MCM-11. If no packets are shown the sender has not sent any weather packets the latest 10 day(s).
| Time | Temp. | Humidity | Pressure | Rain* | Wind** | Luminosity | Snow |
|---|---|---|---|---|---|---|---|
| 1777874316 | 12.22° C | 69% | 1015.9 hPa | 0 mm | - | - | - |
| 1777873714 | 11.67° C | 72% | 1015.9 hPa | 0 mm | - | - | - |
| 1777870107 | 8.33° C | 81% | 1017.1 hPa | 0 mm | - | - | - |
| 1777869505 | 8.33° C | 80% | 1017 hPa | 0 mm | - | - | - |
| 1777862891 | 10° C | 77% | 1016.8 hPa | 0 mm | - | - | - |
| 1777861688 | 10.56° C | 76% | 1016.7 hPa | 0 mm | - | - | - |
| 1777861087 | 11.11° C | 73% | 1016.7 hPa | 0 mm | - | - | - |
| 1777858681 | 12.22° C | 70% | 1016.4 hPa | 0 mm | - | - | - |
| 1777858080 | 12.22° C | 69% | 1016.3 hPa | 0 mm | - | - | - |
| 1777857478 | 12.22° C | 71% | 1016.3 hPa | 0 mm | - | - | - |
| 1777856876 | 12.78° C | 66% | 1016.2 hPa | 0 mm | - | - | - |
| 1777853870 | 12.78° C | 66% | 1016.6 hPa | 0 mm | - | - | - |
| 1777853268 | 12.78° C | 66% | 1016.7 hPa | 0 mm | - | - | - |
| 1777852666 | 12.78° C | 65% | 1016.7 hPa | 0 mm | - | - | - |
| 1777852125 | 12.78° C | 64% | 1016.6 hPa | 0 mm | - | - | - |
| 1777851523 | 12.78° C | 64% | 1016.6 hPa | 0 mm | - | - | - |
| 1777849117 | 13.89° C | 57% | 1016.4 hPa | 0 mm | - | - | - |
| 1777847914 | 13.89° C | 57% | 1016.5 hPa | 0 mm | - | - | - |
| 1777847313 | 13.89° C | 57% | 1016.2 hPa | 0 mm | - | - | - |
| 1777846711 | 14.44° C | 57% | 1015.9 hPa | 0 mm | - | - | - |
| 1777844906 | 14.44° C | 55% | 1015.7 hPa | 0 mm | - | - | - |
| 1777840698 | 15.56° C | 52% | 1014.9 hPa | 0 mm | - | - | - |
| 1777840096 | 15.56° C | 52% | 1014.9 hPa | 0 mm | - | - | - |
| 1777839494 | 15.56° C | 52% | 1014.8 hPa | 0 mm | - | - | - |
| 1777838892 | 15.56° C | 50% | 1014.7 hPa | 0 mm | - | - | - |
* Rain latest hour (hover to see other rain measurements)
** Current wind speed in m/s (hover to see current wind gust speed)